Norwegian Gem — C6VG8 — position and weather

sailwx.info

Track history (hours):
 
Tides and Currents Weather Stations Pressure Air Temp Water Temp Dewpoint Dewpoint Depression Visibility Wind Speed Wind Dir Waves Ship Positions

Norwegian Gem (Bahamas)

Last reported at 2018-May-22 06:00 UTC. Time now 2018-May-22 11:44 UTC.
Position N 27°12' W 079°36'.

Length 294 m; draft 8.6 m.

Type: Ship. MMSI: 309951000.

Wind from 090 at 26 knots

Barometer 1017.4 mb
Air temperature 27.0 ° C
Visibility: greater than 10.8 NM
Water temperature 27.0 ° C

Date/timePositionNaut miles runAvg speedWind from/ knotsBaromVisibWave heightAir tempDewpointWater temp
2018-May-22 06:00N 27°12' W 079°36'156 7.8 090 / 261017.410.8 27.0 27.0
2018-May-21 10:00N 29°48' W 079°42'8120.2 110 / 291019.0 5.4 25.4 28.0
2018-May-21 06:00N 30°54' W 078°48'17819.8 130 / 261020.310.8 28.0 27.0
2018-May-20 21:00N 33°30' W 077°06'5819.3 200 / 171021.1 5.4 24.8 27.0
2018-May-20 18:00N 34°12' W 076°18'12818.3 170 / 241021.710.8 23.0 22.0
2018-May-20 11:00N 36°00' W 074°54'8617.2 170 / 171021.7 5.4 20.3 23.0
2018-May-20 06:00N 37°24' W 074°30'10622.9 190 / 241020.210.8 19.0 16.0
2018-May-20 01:21N 39°08' W 074°01'719.5
2018-May-20 00:59N 39°15' W 073°58'1019.5
2018-May-20 00:30N 39°24' W 073°56'1019.2
2018-May-20 00:00N 39°33' W 073°54'1219.6
2018-May-19 23:24N 39°45' W 073°53'919.6
2018-May-19 22:58N 39°54' W 073°52'3318.8
2018-May-19 21:12N 40°27' W 073°49'313.1
2018-May-19 21:00N 40°28' W 073°52'816.4
2018-May-19 20:30N 40°32' W 074°01'815.9
2018-May-19 20:01N 40°40' W 074°03'612.4
2018-May-19 19:30N 40°46' W 074°00'0 0.5
2018-May-19 18:54N 40°46' W 073°60'0 0.0
2018-May-19 18:24N 40°46' W 073°60'0 0.0
2018-May-19 17:51N 40°46' W 073°60'0 0.0
2018-May-19 17:30N 40°46' W 073°60'0 0.0
2018-May-19 17:00N 40°46' W 073°60'0 0.0
2018-May-19 16:23N 40°46' W 073°60'0 0.0
2018-May-19 15:59N 40°46' W 073°60'0 0.0
2018-May-19 15:17N 40°46' W 073°60'0 0.0
2018-May-19 14:41N 40°46' W 073°60'0 0.0
2018-May-19 14:22N 40°46' W 073°60'0 0.0
2018-May-19 13:58N 40°46' W 073°60'0 0.0
2018-May-19 13:30N 40°46' W 073°60'1 1.2
2018-May-19 12:56N 40°46' W 074°01'4 9.0
2018-May-19 12:30N 40°42' W 074°02'5 9.7
2018-May-19 12:01N 40°37' W 074°03'611.1
2018-May-19 11:30N 40°32' W 074°01'510.9
2018-May-19 11:00N 40°29' W 073°54'4312.1
2018-May-19 07:28N 39°48' W 073°42'713.6
2018-May-19 06:55N 39°40' W 073°43'2914.8
2018-May-19 05:00N 39°12' W 073°48'15313.9 070 / 271024.6 2.2 10.4 14.0
2018-May-18 18:00N 36°42' W 074°24'21416.4 220 / 191020.0 5.4 21.7 18.0
2018-May-18 05:00N 33°12' W 075°12'18416.7 170 / 251019.0 5.4 26.2 27.0
2018-May-17 18:00N 30°12' W 075°54'20115.5 160 / 171019.1 5.4 24.7 27.0
2018-May-17 05:00N 26°54' W 076°36'153 3.3 130 / 251017.6 5.4 25.1 27.0
2018-May-15 06:57N 27°00' W 079°28'22 7.3
2018-May-15 04:00N 27°18' W 079°42'22110.0 150 / 221016.2 5.4 24.1 27.0
2018-May-14 06:00N 30°54' W 078°48'5717.3 150 / 191020.2 5.4 24.0 26.0
2018-May-14 02:41N 31°45' W 078°16'718.1
2018-May-14 02:19N 31°51' W 078°14'617.9
2018-May-14 02:00N 31°56' W 078°11'917.8
2018-May-14 01:28N 32°05' W 078°08'918.4
2018-May-14 01:00N 32°13' W 078°05'1019.4
2018-May-14 00:30N 32°23' W 078°01'7619.1
2018-May-13 20:32N 33°28' W 077°15'119.4
2018-May-13 20:30N 33°28' W 077°15'1019.4
2018-May-13 20:01N 33°34' W 077°06'1019.6
2018-May-13 19:31N 33°41' W 076°57'1119.7
2018-May-13 18:56N 33°48' W 076°46'919.7
2018-May-13 18:29N 33°54' W 076°38'919.8
2018-May-13 18:00N 33°60' W 076°29'7465.6
2018-May-13 18:00N 33°54' W 076°24'1225.7 190 / 171022.2 5.4 24.4 26.0
2018-May-13 17:31N 34°06' W 076°20'1019.4
2018-May-13 17:00N 34°12' W 076°11'1019.2
2018-May-13 16:31N 34°18' W 076°01'1019.4
2018-May-13 16:00N 34°25' W 075°54'1019.4
2018-May-13 15:30N 34°33' W 075°47'1119.8
2018-May-13 14:59N 34°41' W 075°39'919.7
2018-May-13 14:30N 34°49' W 075°33'1119.1
2018-May-13 13:55N 34°57' W 075°24'4017.7
2018-May-13 11:39N 35°34' W 075°03'319.4
2018-May-13 11:31N 35°36' W 075°03'23821.0
2018-May-13 00:11N 39°28' W 073°55'520.6
2018-May-12 23:56N 39°33' W 073°54'1120.3
2018-May-12 23:25N 39°43' W 073°51'1019.9
2018-May-12 22:56N 39°53' W 073°50'3418.8
2018-May-12 21:07N 40°27' W 073°50'1 8.0
2018-May-12 20:58N 40°28' W 073°51'714.4
2018-May-12 20:30N 40°31' W 073°59'713.6
2018-May-12 20:00N 40°37' W 074°03'613.0
2018-May-12 19:30N 40°43' W 074°01'3 0.4
2018-May-12 11:46N 40°46' W 073°60'0 0.0
2018-May-12 11:28N 40°46' W 073°60'0 0.3
2018-May-12 11:01N 40°46' W 074°00'3 5.7
2018-May-12 10:30N 40°43' W 074°01'510.1
2018-May-12 10:00N 40°39' W 074°03'611.7
2018-May-12 09:31N 40°33' W 074°02'612.7
2018-May-12 09:00N 40°29' W 073°55'612.2
2018-May-12 08:30N 40°26' W 073°47'1713.1
2018-May-12 07:13N 40°10' W 073°45'414.6
2018-May-12 06:58N 40°06' W 073°45'714.7
2018-May-12 06:30N 39°59' W 073°43'  
Track history (hours):
 
Tides and Currents Weather Stations Pressure Air Temp Water Temp Dewpoint Dewpoint Depression Visibility Wind Speed Wind Dir Waves Ship Positions

Norwegian Gem (Bahamas)

Last reported at 2018-May-22 06:00 UTC. Time now 2018-May-22 11:44 UTC.
Position N 27°12' W 079°36'.

Length 294 m; draft 8.6 m.

Type: Ship. MMSI: 309951000.

Wind from 090 at 26 knots

Barometer 1017.4 mb
Air temperature 27.0 ° C
Visibility: greater than 10.8 NM
Water temperature 27.0 ° C

Date/timePositionNaut miles runAvg speedWind from/ knotsBaromVisibWave heightAir tempDewpointWater temp
2018-May-22 06:00N 27°12' W 079°36'156 7.8 090 / 261017.410.8 27.0 27.0
2018-May-21 10:00N 29°48' W 079°42'8120.2 110 / 291019.0 5.4 25.4 28.0
2018-May-21 06:00N 30°54' W 078°48'17819.8 130 / 261020.310.8 28.0 27.0
2018-May-20 21:00N 33°30' W 077°06'5819.3 200 / 171021.1 5.4 24.8 27.0
2018-May-20 18:00N 34°12' W 076°18'12818.3 170 / 241021.710.8 23.0 22.0
2018-May-20 11:00N 36°00' W 074°54'8617.2 170 / 171021.7 5.4 20.3 23.0
2018-May-20 06:00N 37°24' W 074°30'10622.9 190 / 241020.210.8 19.0 16.0
2018-May-20 01:21N 39°08' W 074°01'719.5
2018-May-20 00:59N 39°15' W 073°58'1019.5
2018-May-20 00:30N 39°24' W 073°56'1019.2
2018-May-20 00:00N 39°33' W 073°54'1219.6
2018-May-19 23:24N 39°45' W 073°53'919.6
2018-May-19 22:58N 39°54' W 073°52'3318.8
2018-May-19 21:12N 40°27' W 073°49'313.1
2018-May-19 21:00N 40°28' W 073°52'816.4
2018-May-19 20:30N 40°32' W 074°01'815.9
2018-May-19 20:01N 40°40' W 074°03'612.4
2018-May-19 19:30N 40°46' W 074°00'0 0.5
2018-May-19 18:54N 40°46' W 073°60'0 0.0
2018-May-19 18:24N 40°46' W 073°60'0 0.0
2018-May-19 17:51N 40°46' W 073°60'0 0.0
2018-May-19 17:30N 40°46' W 073°60'0 0.0
2018-May-19 17:00N 40°46' W 073°60'0 0.0
2018-May-19 16:23N 40°46' W 073°60'0 0.0
2018-May-19 15:59N 40°46' W 073°60'0 0.0
2018-May-19 15:17N 40°46' W 073°60'0 0.0
2018-May-19 14:41N 40°46' W 073°60'0 0.0
2018-May-19 14:22N 40°46' W 073°60'0 0.0
2018-May-19 13:58N 40°46' W 073°60'0 0.0
2018-May-19 13:30N 40°46' W 073°60'1 1.2
2018-May-19 12:56N 40°46' W 074°01'4 9.0
2018-May-19 12:30N 40°42' W 074°02'5 9.7
2018-May-19 12:01N 40°37' W 074°03'611.1
2018-May-19 11:30N 40°32' W 074°01'510.9
2018-May-19 11:00N 40°29' W 073°54'4312.1
2018-May-19 07:28N 39°48' W 073°42'713.6
2018-May-19 06:55N 39°40' W 073°43'2914.8
2018-May-19 05:00N 39°12' W 073°48'15313.9 070 / 271024.6 2.2 10.4 14.0
2018-May-18 18:00N 36°42' W 074°24'21416.4 220 / 191020.0 5.4 21.7 18.0
2018-May-18 05:00N 33°12' W 075°12'18416.7 170 / 251019.0 5.4 26.2 27.0
2018-May-17 18:00N 30°12' W 075°54'20115.5 160 / 171019.1 5.4 24.7 27.0
2018-May-17 05:00N 26°54' W 076°36'153 3.3 130 / 251017.6 5.4 25.1 27.0
2018-May-15 06:57N 27°00' W 079°28'22 7.3
2018-May-15 04:00N 27°18' W 079°42'22110.0 150 / 221016.2 5.4 24.1 27.0
2018-May-14 06:00N 30°54' W 078°48'5717.3 150 / 191020.2 5.4 24.0 26.0
2018-May-14 02:41N 31°45' W 078°16'718.1
2018-May-14 02:19N 31°51' W 078°14'617.9
2018-May-14 02:00N 31°56' W 078°11'917.8
2018-May-14 01:28N 32°05' W 078°08'918.4
2018-May-14 01:00N 32°13' W 078°05'1019.4
2018-May-14 00:30N 32°23' W 078°01'7619.1
2018-May-13 20:32N 33°28' W 077°15'119.4
2018-May-13 20:30N 33°28' W 077°15'1019.4
2018-May-13 20:01N 33°34' W 077°06'1019.6
2018-May-13 19:31N 33°41' W 076°57'1119.7
2018-May-13 18:56N 33°48' W 076°46'919.7
2018-May-13 18:29N 33°54' W 076°38'919.8
2018-May-13 18:00N 33°60' W 076°29'7465.6
2018-May-13 18:00N 33°54' W 076°24'1225.7 190 / 171022.2 5.4 24.4 26.0
2018-May-13 17:31N 34°06' W 076°20'1019.4
2018-May-13 17:00N 34°12' W 076°11'1019.2
2018-May-13 16:31N 34°18' W 076°01'1019.4
2018-May-13 16:00N 34°25' W 075°54'1019.4
2018-May-13 15:30N 34°33' W 075°47'1119.8
2018-May-13 14:59N 34°41' W 075°39'919.7
2018-May-13 14:30N 34°49' W 075°33'1119.1
2018-May-13 13:55N 34°57' W 075°24'4017.7
2018-May-13 11:39N 35°34' W 075°03'319.4
2018-May-13 11:31N 35°36' W 075°03'23821.0
2018-May-13 00:11N 39°28' W 073°55'520.6
2018-May-12 23:56N 39°33' W 073°54'1120.3
2018-May-12 23:25N 39°43' W 073°51'1019.9
2018-May-12 22:56N 39°53' W 073°50'3418.8
2018-May-12 21:07N 40°27' W 073°50'1 8.0
2018-May-12 20:58N 40°28' W 073°51'714.4
2018-May-12 20:30N 40°31' W 073°59'713.6
2018-May-12 20:00N 40°37' W 074°03'613.0
2018-May-12 19:30N 40°43' W 074°01'3 0.4
2018-May-12 11:46N 40°46' W 073°60'0 0.0
2018-May-12 11:28N 40°46' W 073°60'0 0.3
2018-May-12 11:01N 40°46' W 074°00'3 5.7
2018-May-12 10:30N 40°43' W 074°01'510.1
2018-May-12 10:00N 40°39' W 074°03'611.7
2018-May-12 09:31N 40°33' W 074°02'612.7
2018-May-12 09:00N 40°29' W 073°55'612.2
2018-May-12 08:30N 40°26' W 073°47'1713.1
2018-May-12 07:13N 40°10' W 073°45'414.6
2018-May-12 06:58N 40°06' W 073°45'714.7
2018-May-12 06:30N 39°59' W 073°43'  

Dump ship's entire track history